Time;durP1;ratioP1;P1;durP2;ratioP2;P2;SDS_P1;SDS_P2;PMS_P1;PMS_P2;Temp;Humidity;BMP_temperature;BMP_pressure;BME280_temperature;BME280_humidity;BME280_pressure;Samples;Min_cycle;Max_cycle;Signal;HPM_P1;HPM_P2
2023/10/28 00:01:01;;;;;;;;;;;;;;;;;;4962582;28;19921;-96
2023/10/28 00:03:26;;;;;;;;;;;;;;;;;;4963495;28;19917;-94
2023/10/28 00:05:52;;;;;;;;;;;;;;;;;;4969015;28;19914;-94
2023/10/28 00:08:18;;;;;;;;;;;;;;;;;;4962082;28;19918;-94
2023/10/28 00:10:48;;;;;;;;;;;;;;;;;;4964199;28;19910;-92
2023/10/28 00:13:14;;;;;;;;;;;;;;;;;;4962260;28;20386;-94
2023/10/28 00:15:40;;;;;;;;;;;;;;;;;;4966099;28;20378;-95
2023/10/28 00:18:08;;;;;;;;;;;;;;;;;;4968234;28;19924;-95
2023/10/28 00:20:35;;;;;;;;;;;;;;;;;;4967491;28;19910;-95
2023/10/28 00:23:03;;;;;;;;;;;;;;;;;;4958655;28;20453;-94
2023/10/28 00:25:31;;;;;;;;;;;;;;;;;;4972749;28;19914;-94
2023/10/28 00:27:57;;;;;;;;;;;;;;;;;;4967195;28;20349;-93
2023/10/28 00:30:23;;;;;;;;;;;;;;;;;;4964073;28;20358;-92
2023/10/28 00:32:49;;;;;;;;;;;;;;;;;;4959805;28;19919;-92
2023/10/28 00:35:15;;;;;;;;;;;;;;;;;;4961885;28;19914;-92
2023/10/28 00:37:45;;;;;;;;;;;;;;;;;;4960217;28;20423;-92
2023/10/28 00:40:13;;;;;;;;;;;;;;;;;;4965012;28;19969;-94
2023/10/28 00:42:39;;;;;;;;;;;;;;;;;;4969449;28;19914;-95
2023/10/28 00:45:05;;;;;;;;;;;;;;;;;;4965915;28;19914;-93
2023/10/28 00:47:31;;;;;;;;;;;;;;;;;;4969174;28;19918;-95
2023/10/28 00:49:58;;;;;;;;;;;;;;;;;;4964228;28;19941;-95
2023/10/28 00:52:26;;;;;;;;;;;;;;;;;;4965310;28;19930;-96
2023/10/28 00:54:54;;;;;;;;;;;;;;;;;;4964003;28;19980;-95
2023/10/28 00:57:20;;;;;;;;;;;;;;;;;;4966223;28;19928;-95
2023/10/28 00:59:46;;;;;;;;;;;;;;;;;;4969117;28;19922;-95
2023/10/28 01:02:12;;;;;;;;;;;;;;;;;;4965401;28;19918;-95
2023/10/28 01:04:37;;;;;;;;;;;;;;;;;;4969396;28;19914;-94
2023/10/28 01:07:04;;;;;;;;;;;;;;;;;;4961591;28;19918;-94
2023/10/28 01:09:29;;;;;;;;;;;;;;;;;;4965982;28;20787;-92
2023/10/28 01:11:55;;;;;;;;;;;;;;;;;;4962477;28;19925;-94
2023/10/28 01:14:22;;;;;;;;;;;;;;;;;;4961934;28;19997;-94
2023/10/28 01:16:49;;;;;;;;;;;;;;;;;;4966121;28;19957;-94
2023/10/28 01:19:15;;;;;;;;;;;;;;;;;;4967291;28;19918;-94
2023/10/28 01:21:41;;;;;;;;;;;;;;;;;;4964840;28;19914;-93
2023/10/28 01:24:07;;;;;;;;;;;;;;;;;;4963241;28;19929;-92
2023/10/28 01:26:34;;;;;;;;;;;;;;;;;;4965395;28;19918;-94
2023/10/28 01:29:00;;;;;;;;;;;;;;;;;;4965454;28;20096;-95
2023/10/28 01:31:26;;;;;;;;;;;;;;;;;;4967471;28;19918;-94
2023/10/28 01:33:52;;;;;;;;;;;;;;;;;;4960693;28;20037;-94
2023/10/28 01:36:18;;;;;;;;;;;;;;;;;;4968439;28;19940;-94
2023/10/28 01:38:44;;;;;;;;;;;;;;;;;;4977462;28;20062;-91
2023/10/28 01:41:13;;;;;;;;;;;;;;;;;;4965747;28;20180;-91
2023/10/28 01:43:40;;;;;;;;;;;;;;;;;;4961379;28;20001;-91
2023/10/28 01:46:06;;;;;;;;;;;;;;;;;;4961883;28;19914;-91
2023/10/28 01:48:33;;;;;;;;;;;;;;;;;;4961371;28;19985;-91
2023/10/28 01:50:59;;;;;;;;;;;;;;;;;;4967540;28;19968;-92
2023/10/28 01:53:25;;;;;;;;;;;;;;;;;;4965019;28;19981;-92
2023/10/28 01:55:51;;;;;;;;;;;;;;;;;;4968608;28;19914;-92
2023/10/28 01:58:17;;;;;;;;;;;;;;;;;;4958035;28;19914;-91
2023/10/28 02:00:43;;;;;;;;;;;;;;;;;;4965314;28;19935;-92
2023/10/28 02:03:11;;;;;;;;;;;;;;;;;;4959970;28;20014;-92
2023/10/28 02:05:37;;;;;;;;;;;;;;;;;;4967793;28;20622;-92
2023/10/28 02:08:03;;;;;;;;;;;;;;;;;;4963680;28;19985;-92
2023/10/28 02:10:29;;;;;;;;;;;;;;;;;;4967051;28;20181;-92
2023/10/28 02:12:55;;;;;;;;;;;;;;;;;;4963926;28;19965;-92
2023/10/28 02:15:21;;;;;;;;;;;;;;;;;;4973799;28;19918;-92
2023/10/28 02:17:48;;;;;;;;;;;;;;;;;;4964897;28;19992;-92
2023/10/28 02:20:21;;;;;;;;;;;;;;;;;;4963039;28;20024;-92
2023/10/28 02:22:48;;;;;;;;;;;;;;;;;;4964351;28;19914;-92
2023/10/28 02:25:14;;;;;;;;;;;;;;;;;;4965164;28;19914;-93
2023/10/28 02:27:40;;;;;;;;;;;;;;;;;;4964150;28;20257;-92
2023/10/28 02:30:07;;;;;;;;;;;;;;;;;;4961989;28;19929;-92
2023/10/28 02:32:33;;;;;;;;;;;;;;;;;;4964131;28;19914;-92
2023/10/28 02:35:03;;;;;;;;;;;;;;;;;;4962793;28;19929;-92
2023/10/28 02:37:29;;;;;;;;;;;;;;;;;;4961808;28;19914;-91
2023/10/28 02:39:55;;;;;;;;;;;;;;;;;;4962162;28;19921;-92
2023/10/28 02:42:20;;;;;;;;;;;;;;;;;;4966415;28;19918;-92
2023/10/28 02:44:49;;;;;;;;;;;;;;;;;;4971451;28;19988;-92
2023/10/28 02:47:15;;;;;;;;;;;;;;;;;;4971975;28;20321;-92
2023/10/28 02:49:48;;;;;;;;;;;;;;;;;;4983954;28;19926;-91
2023/10/28 02:52:14;;;;;;;;;;;;;;;;;;4966339;28;20334;-91
2023/10/28 02:54:40;;;;;;;;;;;;;;;;;;4972687;28;20017;-91
2023/10/28 02:57:06;;;;;;;;;;;;;;;;;;4983531;28;19918;-91
2023/10/28 02:59:32;;;;;;;;;;;;;;;;;;4962786;28;20017;-90
2023/10/28 03:01:58;;;;;;;;;;;;;;;;;;4969351;28;19924;-91
2023/10/28 03:04:24;;;;;;;;;;;;;;;;;;4965930;28;19918;-91
2023/10/28 03:06:56;;;;;;;;;;;;;;;;;;4969650;28;20991;-91
2023/10/28 03:09:22;;;;;;;;;;;;;;;;;;4966596;28;19942;-91
2023/10/28 03:11:48;;;;;;;;;;;;;;;;;;4966556;28;19918;-91
2023/10/28 03:14:17;;;;;;;;;;;;;;;;;;4970333;28;19929;-91
2023/10/28 03:16:45;;;;;;;;;;;;;;;;;;4966691;28;19914;-91
2023/10/28 03:19:11;;;;;;;;;;;;;;;;;;4969699;28;19946;-91
2023/10/28 03:21:37;;;;;;;;;;;;;;;;;;4964810;28;19911;-91
2023/10/28 03:24:03;;;;;;;;;;;;;;;;;;4966704;28;20013;-91
2023/10/28 03:26:29;;;;;;;;;;;;;;;;;;4965664;28;20363;-91
2023/10/28 03:28:55;;;;;;;;;;;;;;;;;;4966968;28;19938;-91
2023/10/28 03:31:21;;;;;;;;;;;;;;;;;;4967687;28;19899;-91
2023/10/28 03:33:47;;;;;;;;;;;;;;;;;;4969068;28;19921;-91
2023/10/28 03:36:13;;;;;;;;;;;;;;;;;;4966695;28;19914;-91
2023/10/28 03:38:39;;;;;;;;;;;;;;;;;;4968757;28;20316;-91
2023/10/28 03:41:05;;;;;;;;;;;;;;;;;;4963819;28;20063;-90
2023/10/28 03:43:32;;;;;;;;;;;;;;;;;;4965742;28;20390;-91
2023/10/28 03:45:58;;;;;;;;;;;;;;;;;;4967345;28;19922;-92
2023/10/28 03:48:26;;;;;;;;;;;;;;;;;;4968348;28;19969;-91
2023/10/28 03:50:52;;;;;;;;;;;;;;;;;;4970048;28;19923;-92
2023/10/28 03:53:18;;;;;;;;;;;;;;;;;;4965345;28;19921;-91
2023/10/28 03:55:44;;;;;;;;;;;;;;;;;;4969131;28;19960;-91
2023/10/28 03:58:10;;;;;;;;;;;;;;;;;;4970375;28;21345;-93
2023/10/28 04:00:37;;;;;;;;;;;;;;;;;;4967282;28;19952;-92
2023/10/28 04:03:03;;;;;;;;;;;;;;;;;;4980661;28;20481;-92
2023/10/28 04:05:29;;;;;;;;;;;;;;;;;;4965272;28;20012;-92
2023/10/28 04:07:56;;;;;;;;;;;;;;;;;;4963057;28;19997;-93
2023/10/28 04:10:23;;;;;;;;;;;;;;;;;;4962613;28;20446;-93
2023/10/28 04:12:49;;;;;;;;;;;;;;;;;;4960816;28;19918;-93
2023/10/28 04:15:18;;;;;;;;;;;;;;;;;;4964244;28;20440;-93
2023/10/28 04:17:44;;;;;;;;;;;;;;;;;;4960395;28;20090;-93
2023/10/28 04:20:10;;;;;;;;;;;;;;;;;;4968245;28;20361;-90
2023/10/28 04:22:36;;;;;;;;;;;;;;;;;;4966402;28;20270;-90
2023/10/28 04:25:03;;;;;;;;;;;;;;;;;;4963931;28;19918;-89
2023/10/28 04:27:29;;;;;;;;;;;;;;;;;;4968376;28;20365;-90
2023/10/28 04:29:55;;;;;;;;;;;;;;;;;;4965535;28;19937;-90
2023/10/28 04:32:22;;;;;;;;;;;;;;;;;;4969241;28;19926;-91
2023/10/28 04:34:57;;;;;;;;;;;;;;;;;;4963193;28;20258;-90
2023/10/28 04:37:24;;;;;;;;;;;;;;;;;;4965072;28;20094;-90
2023/10/28 04:39:51;;;;;;;;;;;;;;;;;;4965465;28;19961;-91
2023/10/28 04:42:18;;;;;;;;;;;;;;;;;;4962381;28;19925;-91
2023/10/28 04:44:44;;;;;;;;;;;;;;;;;;4970165;28;19918;-91
2023/10/28 04:47:10;;;;;;;;;;;;;;;;;;4964224;28;19914;-90
2023/10/28 04:49:37;;;;;;;;;;;;;;;;;;4965510;28;19978;-91
2023/10/28 04:52:03;;;;;;;;;;;;;;;;;;4964918;28;20464;-90
2023/10/28 04:54:29;;;;;;;;;;;;;;;;;;4967599;28;20301;-90
2023/10/28 04:56:55;;;;;;;;;;;;;;;;;;4967656;28;19922;-90
2023/10/28 04:59:24;;;;;;;;;;;;;;;;;;4964966;28;19918;-90
2023/10/28 05:01:51;;;;;;;;;;;;;;;;;;4969469;28;19918;-91
2023/10/28 05:04:18;;;;;;;;;;;;;;;;;;4966931;28;19969;-90
2023/10/28 05:06:44;;;;;;;;;;;;;;;;;;4967602;28;19976;-90
2023/10/28 05:09:10;;;;;;;;;;;;;;;;;;4966865;28;19925;-90
2023/10/28 05:11:36;;;;;;;;;;;;;;;;;;4962125;28;19918;-91
2023/10/28 05:14:03;;;;;;;;;;;;;;;;;;4961165;28;19914;-91
2023/10/28 05:16:29;;;;;;;;;;;;;;;;;;4963214;28;19956;-90
2023/10/28 05:18:56;;;;;;;;;;;;;;;;;;4965537;28;19957;-90
2023/10/28 05:21:22;;;;;;;;;;;;;;;;;;4963760;28;19925;-89
2023/10/28 05:23:48;;;;;;;;;;;;;;;;;;4965087;28;19922;-89
2023/10/28 05:26:14;;;;;;;;;;;;;;;;;;4963757;28;19918;-91
2023/10/28 05:28:40;;;;;;;;;;;;;;;;;;4967788;28;19933;-91
2023/10/28 05:31:06;;;;;;;;;;;;;;;;;;4965717;28;19922;-91
2023/10/28 05:33:32;;;;;;;;;;;;;;;;;;4975866;28;20294;-91
2023/10/28 05:35:58;;;;;;;;;;;;;;;;;;4964955;28;19925;-91
2023/10/28 05:38:24;;;;;;;;;;;;;;;;;;4963605;28;20681;-91
2023/10/28 05:40:50;;;;;;;;;;;;;;;;;;4958939;28;19926;-91
2023/10/28 05:43:19;;;;;;;;;;;;;;;;;;4966366;28;19924;-91
2023/10/28 05:45:45;;;;;;;;;;;;;;;;;;4962273;28;20309;-91
2023/10/28 05:48:11;;;;;;;;;;;;;;;;;;4965396;28;19922;-91
2023/10/28 05:50:37;;;;;;;;;;;;;;;;;;4976843;28;20342;-91
2023/10/28 05:53:03;;;;;;;;;;;;;;;;;;4977445;28;19922;-91
2023/10/28 05:55:29;;;;;;;;;;;;;;;;;;4966820;28;19968;-91
2023/10/28 05:57:55;;;;;;;;;;;;;;;;;;4969978;28;19922;-91
2023/10/28 06:00:21;;;;;;;;;;;;;;;;;;4961888;28;19922;-92
2023/10/28 06:02:47;;;;;;;;;;;;;;;;;;4958121;28;20414;-91
2023/10/28 06:05:14;;;;;;;;;;;;;;;;;;4958900;28;19994;-91
2023/10/28 06:07:47;;;;;;;;;;;;;;;;;;4965963;28;20004;-90
2023/10/28 06:10:13;;;;;;;;;;;;;;;;;;4957597;28;19929;-90
2023/10/28 06:12:38;;;;;;;;;;;;;;;;;;4964695;28;19914;-91
2023/10/28 06:15:05;;;;;;;;;;;;;;;;;;4958140;28;19918;-92
2023/10/28 06:17:31;;;;;;;;;;;;;;;;;;4969255;28;19938;-91
2023/10/28 06:19:57;;;;;;;;;;;;;;;;;;4981593;28;19947;-94
2023/10/28 06:22:23;;;;;;;;;;;;;;;;;;4965108;28;19914;-92
2023/10/28 06:24:55;;;;;;;;;;;;;;;;;;4970307;28;19918;-94
2023/10/28 06:27:22;;;;;;;;;;;;;;;;;;4971517;28;20459;-94
2023/10/28 06:29:48;;;;;;;;;;;;;;;;;;4967950;28;20301;-94
2023/10/28 06:32:13;;;;;;;;;;;;;;;;;;4969819;28;19944;-93
2023/10/28 06:34:40;;;;;;;;;;;;;;;;;;4969480;28;19972;-92
2023/10/28 06:37:06;;;;;;;;;;;;;;;;;;4966508;28;19915;-93
2023/10/28 06:39:34;;;;;;;;;;;;;;;;;;4965577;28;19918;-91
2023/10/28 06:42:01;;;;;;;;;;;;;;;;;;4968467;28;19930;-91
2023/10/28 06:44:27;;;;;;;;;;;;;;;;;;4971525;28;19918;-90
2023/10/28 06:46:53;;;;;;;;;;;;;;;;;;4969446;28;20056;-91
2023/10/28 06:49:19;;;;;;;;;;;;;;;;;;4970252;28;19926;-91
2023/10/28 06:51:45;;;;;;;;;;;;;;;;;;4965006;28;19914;-90
2023/10/28 06:54:11;;;;;;;;;;;;;;;;;;4965969;28;19928;-91
2023/10/28 06:56:37;;;;;;;;;;;;;;;;;;4984460;28;19919;-91
2023/10/28 06:59:03;;;;;;;;;;;;;;;;;;4969375;28;19929;-91
2023/10/28 07:01:29;;;;;;;;;;;;;;;;;;4976715;28;19921;-91
2023/10/28 07:03:55;;;;;;;;;;;;;;;;;;4966315;28;20005;-91
2023/10/28 07:06:21;;;;;;;;;;;;;;;;;;4971684;28;19921;-90
2023/10/28 07:08:48;;;;;;;;;;;;;;;;;;4968570;28;19968;-90
2023/10/28 07:11:14;;;;;;;;;;;;;;;;;;4964547;28;19929;-91
2023/10/28 07:13:40;;;;;;;;;;;;;;;;;;4969482;28;19919;-91
2023/10/28 07:16:05;;;;;;;;;;;;;;;;;;4970682;28;19925;-90
2023/10/28 07:18:31;;;;;;;;;;;;;;;;;;4963070;28;19948;-91
2023/10/28 07:20:57;;;;;;;;;;;;;;;;;;4968413;28;19914;-91
2023/10/28 07:23:27;;;;;;;;;;;;;;;;;;4965352;28;19989;-91
2023/10/28 07:25:53;;;;;;;;;;;;;;;;;;4967743;28;19918;-91
2023/10/28 07:28:19;;;;;;;;;;;;;;;;;;4971831;28;19922;-90
2023/10/28 07:30:45;;;;;;;;;;;;;;;;;;4967379;28;19926;-90
2023/10/28 07:33:13;;;;;;;;;;;;;;;;;;4970653;28;20378;-90
2023/10/28 07:35:42;;;;;;;;;;;;;;;;;;4968392;28;19922;-90
2023/10/28 07:38:08;;;;;;;;;;;;;;;;;;4966786;28;20287;-91
2023/10/28 07:40:34;;;;;;;;;;;;;;;;;;4964972;28;20007;-91
2023/10/28 07:43:00;;;;;;;;;;;;;;;;;;4963773;28;19925;-90
2023/10/28 07:45:26;;;;;;;;;;;;;;;;;;4968891;28;19945;-91
2023/10/28 07:47:52;;;;;;;;;;;;;;;;;;4968795;28;20298;-93
2023/10/28 07:50:19;;;;;;;;;;;;;;;;;;4963420;28;19922;-91
2023/10/28 07:52:45;;;;;;;;;;;;;;;;;;4963776;28;19985;-92
2023/10/28 07:55:11;;;;;;;;;;;;;;;;;;4969979;28;20005;-91
2023/10/28 07:57:37;;;;;;;;;;;;;;;;;;4965342;28;19928;-92
2023/10/28 08:00:05;;;;;;;;;;;;;;;;;;4971929;28;19953;-90
2023/10/28 08:02:31;;;;;;;;;;;;;;;;;;4963241;28;19922;-90
2023/10/28 08:05:00;;;;;;;;;;;;;;;;;;4964519;28;20416;-91
2023/10/28 08:07:26;;;;;;;;;;;;;;;;;;4961248;28;19937;-91
2023/10/28 08:09:52;;;;;;;;;;;;;;;;;;4962874;28;19926;-92
2023/10/28 08:12:18;;;;;;;;;;;;;;;;;;4968458;28;19918;-91
2023/10/28 08:14:46;;;;;;;;;;;;;;;;;;4963648;28;20251;-91
2023/10/28 08:17:13;;;;;;;;;;;;;;;;;;4968709;28;19914;-90
2023/10/28 08:19:40;;;;;;;;;;;;;;;;;;4967387;28;19918;-91
2023/10/28 08:22:12;;;;;;;;;;;;;;;;;;4979783;28;19950;-90
2023/10/28 08:24:39;;;;;;;;;;;;;;;;;;4967293;28;19962;-90
2023/10/28 08:27:14;;;;;;;;;;;;;;;;;;4971702;28;20298;-92
2023/10/28 08:29:43;;;;;;;;;;;;;;;;;;4970306;28;19970;-93
2023/10/28 08:32:10;;;;;;;;;;;;;;;;;;4975259;28;19922;-92
2023/10/28 08:34:36;;;;;;;;;;;;;;;;;;4982759;28;19945;-93
2023/10/28 08:37:03;;;;;;;;;;;;;;;;;;4964851;28;19922;-91
2023/10/28 08:39:44;;;;;;;;;;;;;;;;;;4961497;28;19926;-95
2023/10/28 08:42:09;;;;;;;;;;;;;;;;;;4967527;28;20519;-92
2023/10/28 08:44:37;;;;;;;;;;;;;;;;;;4977948;28;19996;-95
2023/10/28 08:47:06;;;;;;;;;;;;;;;;;;4982109;28;19929;-94
2023/10/28 08:49:39;;;;;;;;;;;;;;;;;;4962648;28;19918;-94
2023/10/28 08:52:06;;;;;;;;;;;;;;;;;;4978000;28;19937;-94
2023/10/28 08:54:32;;;;;;;;;;;;;;;;;;4966535;28;20377;-94
2023/10/28 08:56:59;;;;;;;;;;;;;;;;;;4962863;28;20294;-94
2023/10/28 08:59:25;;;;;;;;;;;;;;;;;;4963673;28;19922;-94
2023/10/28 09:01:50;;;;;;;;;;;;;;;;;;4965175;28;20358;-94
2023/10/28 09:04:21;;;;;;;;;;;;;;;;;;4970874;28;19914;-94
2023/10/28 09:06:47;;;;;;;;;;;;;;;;;;4968345;28;19918;-93
2023/10/28 09:09:13;;;;;;;;;;;;;;;;;;4969477;28;20394;-94
2023/10/28 09:11:39;;;;;;;;;;;;;;;;;;4965186;28;19918;-94
2023/10/28 09:14:07;;;;;;;;;;;;;;;;;;4956209;28;19922;-93
2023/10/28 09:16:39;;;;;;;;;;;;;;;;;;4962357;28;19914;-92
2023/10/28 09:19:09;;;;;;;;;;;;;;;;;;4967122;28;19915;-93
2023/10/28 09:21:35;;;;;;;;;;;;;;;;;;4968691;28;19918;-92
2023/10/28 09:24:01;;;;;;;;;;;;;;;;;;4964780;28;19929;-93
2023/10/28 09:26:28;;;;;;;;;;;;;;;;;;4961283;28;19925;-93
2023/10/28 09:28:54;;;;;;;;;;;;;;;;;;4970648;28;19930;-93
2023/10/28 09:31:20;;;;;;;;;;;;;;;;;;4956698;28;19914;-94
2023/10/28 09:33:47;;;;;;;;;;;;;;;;;;4969621;28;19968;-94
2023/10/28 09:36:13;;;;;;;;;;;;;;;;;;4965631;28;20417;-94
2023/10/28 09:38:41;;;;;;;;;;;;;;;;;;4970252;28;19914;-93
2023/10/28 09:41:07;;;;;;;;;;;;;;;;;;4969435;28;19918;-95
2023/10/28 09:43:33;;;;;;;;;;;;;;;;;;4965768;28;19942;-95
2023/10/28 09:45:59;;;;;;;;;;;;;;;;;;4965579;28;19918;-93
2023/10/28 09:48:26;;;;;;;;;;;;;;;;;;4964221;28;19922;-93
2023/10/28 09:50:52;;;;;;;;;;;;;;;;;;4972064;28;20008;-94
2023/10/28 09:53:18;;;;;;;;;;;;;;;;;;4968487;28;19918;-94
2023/10/28 09:55:46;;;;;;;;;;;;;;;;;;4964597;28;19914;-92
2023/10/28 09:58:13;;;;;;;;;;;;;;;;;;4967639;28;19921;-93
2023/10/28 10:00:39;;;;;;;;;;;;;;;;;;4962789;28;19925;-93
2023/10/28 10:03:06;;;;;;;;;;;;;;;;;;4972486;28;20371;-92
2023/10/28 10:05:32;;;;;;;;;;;;;;;;;;4968903;28;19959;-93
2023/10/28 10:07:58;;;;;;;;;;;;;;;;;;4965354;28;19914;-94
2023/10/28 10:10:24;;;;;;;;;;;;;;;;;;4968198;28;19922;-93
2023/10/28 10:12:54;;;;;;;;;;;;;;;;;;4979166;28;19921;-93
2023/10/28 10:15:29;;;;;;;;;;;;;;;;;;4967015;28;20323;-93
2023/10/28 10:17:55;;;;;;;;;;;;;;;;;;4967862;28;20315;-94
2023/10/28 10:20:23;;;;;;;;;;;;;;;;;;4962662;28;19922;-93
2023/10/28 10:22:49;;;;;;;;;;;;;;;;;;4961371;28;19915;-93
2023/10/28 10:25:15;;;;;;;;;;;;;;;;;;4964343;28;19973;-94
2023/10/28 10:27:44;;;;;;;;;;;;;;;;;;4960400;28;19922;-92
2023/10/28 10:30:10;;;;;;;;;;;;;;;;;;4969439;28;19923;-92
2023/10/28 10:32:38;;;;;;;;;;;;;;;;;;4970957;28;19958;-93
2023/10/28 10:35:05;;;;;;;;;;;;;;;;;;4967197;28;19918;-93
2023/10/28 10:37:31;;;;;;;;;;;;;;;;;;4970998;28;19986;-95
2023/10/28 10:39:57;;;;;;;;;;;;;;;;;;4972031;28;19970;-95
2023/10/28 10:42:23;;;;;;;;;;;;;;;;;;4983879;28;19937;-95
2023/10/28 10:44:49;;;;;;;;;;;;;;;;;;4971040;28;19913;-90
2023/10/28 10:47:17;;;;;;;;;;;;;;;;;;4969511;28;19918;-90
2023/10/28 10:49:43;;;;;;;;;;;;;;;;;;4962078;28;19965;-94
2023/10/28 10:52:12;;;;;;;;;;;;;;;;;;4962272;28;20391;-93
2023/10/28 10:54:40;;;;;;;;;;;;;;;;;;4970301;28;19918;-94
2023/10/28 10:57:06;;;;;;;;;;;;;;;;;;4979044;28;19914;-94
2023/10/28 10:59:32;;;;;;;;;;;;;;;;;;4970349;28;19915;-92
2023/10/28 11:02:00;;;;;;;;;;;;;;;;;;4964316;28;20309;-91
2023/10/28 11:04:26;;;;;;;;;;;;;;;;;;4971420;28;19917;-93
2023/10/28 11:06:52;;;;;;;;;;;;;;;;;;4965319;28;19930;-91
2023/10/28 11:09:18;;;;;;;;;;;;;;;;;;4971726;28;19918;-92
2023/10/28 11:11:44;;;;;;;;;;;;;;;;;;4971111;28;19945;-92
2023/10/28 11:14:09;;;;;;;;;;;;;;;;;;4969794;28;19914;-92
2023/10/28 11:16:35;;;;;;;;;;;;;;;;;;4972605;28;19925;-92
2023/10/28 11:19:01;;;;;;;;;;;;;;;;;;4975643;28;19981;-92
2023/10/28 11:21:28;;;;;;;;;;;;;;;;;;4976155;28;19918;-93
2023/10/28 11:23:54;;;;;;;;;;;;;;;;;;4968483;28;19921;-92
2023/10/28 11:26:20;;;;;;;;;;;;;;;;;;4975649;28;19914;-92
2023/10/28 11:28:46;;;;;;;;;;;;;;;;;;4971173;28;19918;-92
2023/10/28 11:31:12;;;;;;;;;;;;;;;;;;4974628;28;19938;-92
2023/10/28 11:33:38;;;;;;;;;;;;;;;;;;4974875;28;19918;-92
2023/10/28 11:36:04;;;;;;;;;;;;;;;;;;4977919;28;19914;-92
2023/10/28 11:38:30;;;;;;;;;;;;;;;;;;4974451;28;19954;-93
2023/10/28 11:40:56;;;;;;;;;;;;;;;;;;4974917;28;20211;-94
2023/10/28 11:43:22;;;;;;;;;;;;;;;;;;4977855;28;19918;-94
2023/10/28 11:45:48;;;;;;;;;;;;;;;;;;4973435;28;19919;-93
2023/10/28 11:48:14;;;;;;;;;;;;;;;;;;4979620;28;19926;-93
2023/10/28 11:50:40;;;;;;;;;;;;;;;;;;4980487;28;19937;-93
2023/10/28 11:53:06;;;;;;;;;;;;;;;;;;4977948;28;19914;-92
2023/10/28 11:55:32;;;;;;;;;;;;;;;;;;4968290;28;20421;-93
2023/10/28 11:57:58;;;;;;;;;;;;;;;;;;4962956;28;19922;-93
2023/10/28 12:00:26;;;;;;;;;;;;;;;;;;4971485;28;19941;-91
2023/10/28 12:02:51;;;;;;;;;;;;;;;;;;4973090;28;19922;-92
2023/10/28 12:05:18;;;;;;;;;;;;;;;;;;4988225;28;19941;-94
2023/10/28 12:07:44;;;;;;;;;;;;;;;;;;4975996;28;20385;-93
2023/10/28 12:10:10;;;;;;;;;;;;;;;;;;4987036;28;19929;-93
2023/10/28 12:12:36;;;;;;;;;;;;;;;;;;4991945;28;19914;-93
2023/10/28 12:15:09;;;;;;;;;;;;;;;;;;4973288;28;19929;-93
2023/10/28 12:17:44;;;;;;;;;;;;;;;;;;4969112;28;19915;-93
2023/10/28 12:20:14;;;;;;;;;;;;;;;;;;4966866;28;19989;-94
2023/10/28 12:22:40;;;;;;;;;;;;;;;;;;4970743;28;20282;-94
2023/10/28 12:25:06;;;;;;;;;;;;;;;;;;4976610;28;19977;-93
2023/10/28 12:27:32;;;;;;;;;;;;;;;;;;4977750;28;19989;-93
2023/10/28 12:29:58;;;;;;;;;;;;;;;;;;4978017;28;20382;-91
2023/10/28 12:32:24;;;;;;;;;;;;;;;;;;4976576;28;20010;-90
2023/10/28 12:34:50;;;;;;;;;;;;;;;;;;4978234;28;19925;-91
2023/10/28 12:37:17;;;;;;;;;;;;;;;;;;4975755;28;19994;-92
2023/10/28 12:39:43;;;;;;;;;;;;;;;;;;4975071;28;19949;-91
2023/10/28 12:42:09;;;;;;;;;;;;;;;;;;4975221;28;19922;-90
2023/10/28 12:44:35;;;;;;;;;;;;;;;;;;4973251;28;19918;-91
2023/10/28 12:47:01;;;;;;;;;;;;;;;;;;4976689;28;20505;-91
2023/10/28 12:49:27;;;;;;;;;;;;;;;;;;4979019;28;19977;-91
2023/10/28 12:51:56;;;;;;;;;;;;;;;;;;4978097;28;19915;-90
2023/10/28 12:54:22;;;;;;;;;;;;;;;;;;4969819;28;20013;-91
2023/10/28 12:56:48;;;;;;;;;;;;;;;;;;4973175;28;19956;-91
2023/10/28 12:59:14;;;;;;;;;;;;;;;;;;4966404;28;19914;-91
2023/10/28 13:01:40;;;;;;;;;;;;;;;;;;4971865;28;19920;-91
2023/10/28 13:04:21;;;;;;;;;;;;;;;;;;4971181;28;19941;-91
2023/10/28 13:06:47;;;;;;;;;;;;;;;;;;4973184;28;19922;-91
2023/10/28 13:09:13;;;;;;;;;;;;;;;;;;4981510;28;20370;-91
2023/10/28 13:11:39;;;;;;;;;;;;;;;;;;4966374;28;19915;-91
2023/10/28 13:14:06;;;;;;;;;;;;;;;;;;4968926;28;20008;-91
2023/10/28 13:16:32;;;;;;;;;;;;;;;;;;4965626;28;19922;-91
2023/10/28 13:18:58;;;;;;;;;;;;;;;;;;4967855;28;19914;-92
2023/10/28 13:21:24;;;;;;;;;;;;;;;;;;4968980;28;19914;-93
2023/10/28 13:23:50;;;;;;;;;;;;;;;;;;4974537;28;19921;-93
2023/10/28 13:26:16;;;;;;;;;;;;;;;;;;4968265;28;19918;-92
2023/10/28 13:28:43;;;;;;;;;;;;;;;;;;4965082;28;19914;-93
2023/10/28 13:31:09;;;;;;;;;;;;;;;;;;4969506;28;20021;-92
2023/10/28 13:33:35;;;;;;;;;;;;;;;;;;4971486;28;20384;-92
2023/10/28 13:36:03;;;;;;;;;;;;;;;;;;4966353;28;19922;-92
2023/10/28 13:38:29;;;;;;;;;;;;;;;;;;4968390;28;20388;-92
2023/10/28 13:40:55;;;;;;;;;;;;;;;;;;4965638;28;20359;-91
2023/10/28 13:43:21;;;;;;;;;;;;;;;;;;4969696;28;19973;-92
2023/10/28 13:45:47;;;;;;;;;;;;;;;;;;4969969;28;19925;-91
2023/10/28 13:48:15;;;;;;;;;;;;;;;;;;4965523;28;19950;-91
2023/10/28 13:50:41;;;;;;;;;;;;;;;;;;4969243;28;19917;-91
2023/10/28 13:53:07;;;;;;;;;;;;;;;;;;4965435;28;19926;-92
2023/10/28 13:55:33;;;;;;;;;;;;;;;;;;4967787;28;20022;-91
2023/10/28 13:57:59;;;;;;;;;;;;;;;;;;4964436;28;20279;-91
2023/10/28 14:00:25;;;;;;;;;;;;;;;;;;4969356;28;19914;-92
2023/10/28 14:02:52;;;;;;;;;;;;;;;;;;4969006;28;19922;-91
2023/10/28 14:05:17;;;;;;;;;;;;;;;;;;4985523;28;20016;-92
2023/10/28 14:07:50;;;;;;;;;;;;;;;;;;4967328;28;19918;-91
2023/10/28 14:10:17;;;;;;;;;;;;;;;;;;4958897;28;19918;-93
2023/10/28 14:12:44;;;;;;;;;;;;;;;;;;4969057;28;20445;-91
2023/10/28 14:15:11;;;;;;;;;;;;;;;;;;4966574;28;20409;-92
2023/10/28 14:17:37;;;;;;;;;;;;;;;;;;4966350;28;19941;-92
2023/10/28 14:20:03;;;;;;;;;;;;;;;;;;4960787;28;19915;-91
2023/10/28 14:22:29;;;;;;;;;;;;;;;;;;4967635;28;20009;-91
2023/10/28 14:24:56;;;;;;;;;;;;;;;;;;4969249;28;19915;-91
2023/10/28 14:27:22;;;;;;;;;;;;;;;;;;4966410;28;19930;-92
2023/10/28 14:29:54;;;;;;;;;;;;;;;;;;4962842;28;19922;-93
2023/10/28 14:32:20;;;;;;;;;;;;;;;;;;4979391;28;20354;-94
2023/10/28 14:34:46;;;;;;;;;;;;;;;;;;4963279;28;19925;-93
2023/10/28 14:37:12;;;;;;;;;;;;;;;;;;4964716;28;19980;-93
2023/10/28 14:39:38;;;;;;;;;;;;;;;;;;4963612;28;19922;-93
2023/10/28 14:42:05;;;;;;;;;;;;;;;;;;4966174;28;19914;-93
2023/10/28 14:44:35;;;;;;;;;;;;;;;;;;4967757;28;19922;-93
2023/10/28 14:47:02;;;;;;;;;;;;;;;;;;4970919;28;19926;-92
2023/10/28 14:49:28;;;;;;;;;;;;;;;;;;4972802;28;19925;-93
2023/10/28 14:51:53;;;;;;;;;;;;;;;;;;4970165;28;19952;-92
2023/10/28 14:54:20;;;;;;;;;;;;;;;;;;4969116;28;19924;-93
2023/10/28 14:56:46;;;;;;;;;;;;;;;;;;4966908;28;19914;-92
2023/10/28 14:59:12;;;;;;;;;;;;;;;;;;4968804;28;19930;-93
2023/10/28 15:01:38;;;;;;;;;;;;;;;;;;4967119;28;19977;-92
2023/10/28 15:04:04;;;;;;;;;;;;;;;;;;4967521;28;19918;-92
2023/10/28 15:06:30;;;;;;;;;;;;;;;;;;4986980;28;19953;-93
2023/10/28 15:08:56;;;;;;;;;;;;;;;;;;4968641;28;20139;-93
2023/10/28 15:11:22;;;;;;;;;;;;;;;;;;4969366;28;20370;-92
2023/10/28 15:13:48;;;;;;;;;;;;;;;;;;4969926;28;19914;-92
2023/10/28 15:16:14;;;;;;;;;;;;;;;;;;4967141;28;20056;-92
2023/10/28 15:18:50;;;;;;;;;;;;;;;;;;4966425;28;19913;-92
2023/10/28 15:21:16;;;;;;;;;;;;;;;;;;4967782;28;19941;-93
2023/10/28 15:23:43;;;;;;;;;;;;;;;;;;4966891;28;20434;-93
2023/10/28 15:26:09;;;;;;;;;;;;;;;;;;4965469;28;19914;-93
2023/10/28 15:28:36;;;;;;;;;;;;;;;;;;4963236;28;20119;-92
2023/10/28 15:31:03;;;;;;;;;;;;;;;;;;4970003;28;19927;-93
2023/10/28 15:33:29;;;;;;;;;;;;;;;;;;4964796;28;19914;-93
2023/10/28 15:35:55;;;;;;;;;;;;;;;;;;4969552;28;19945;-93
2023/10/28 15:38:21;;;;;;;;;;;;;;;;;;4969617;28;20381;-90
2023/10/28 15:40:48;;;;;;;;;;;;;;;;;;4984677;28;19966;-91
2023/10/28 15:43:23;;;;;;;;;;;;;;;;;;4967236;28;20364;-91
2023/10/28 15:45:49;;;;;;;;;;;;;;;;;;4965497;28;20337;-90
2023/10/28 15:48:15;;;;;;;;;;;;;;;;;;4969771;28;19922;-91
2023/10/28 15:50:42;;;;;;;;;;;;;;;;;;4967023;28;19926;-90
2023/10/28 15:53:31;;;;;;;;;;;;;;;;;;4967080;28;19919;-91
2023/10/28 15:55:54;;;;;;;;;;;;;;;;;;4968607;28;20014;-90
2023/10/28 15:58:21;;;;;;;;;;;;;;;;;;4967409;28;20353;-93
2023/10/28 16:00:47;;;;;;;;;;;;;;;;;;4972197;28;19942;-92
2023/10/28 16:03:17;;;;;;;;;;;;;;;;;;4970450;28;19926;-93
2023/10/28 16:05:43;;;;;;;;;;;;;;;;;;4971702;28;19922;-93
2023/10/28 16:08:09;;;;;;;;;;;;;;;;;;4968226;28;20299;-92
2023/10/28 16:10:36;;;;;;;;;;;;;;;;;;4968979;28;19922;-92
2023/10/28 16:13:02;;;;;;;;;;;;;;;;;;4969295;28;19922;-92
2023/10/28 16:15:28;;;;;;;;;;;;;;;;;;4969653;28;20048;-93
2023/10/28 16:17:54;;;;;;;;;;;;;;;;;;4972941;28;20405;-94
2023/10/28 16:20:20;;;;;;;;;;;;;;;;;;4969479;28;19921;-92
2023/10/28 16:22:46;;;;;;;;;;;;;;;;;;4973480;28;20318;-93
2023/10/28 16:25:12;;;;;;;;;;;;;;;;;;4968367;28;19946;-93
2023/10/28 16:27:38;;;;;;;;;;;;;;;;;;4968137;28;19919;-94
2023/10/28 16:30:05;;;;;;;;;;;;;;;;;;4968870;28;19918;-92
2023/10/28 16:32:31;;;;;;;;;;;;;;;;;;4975028;28;20271;-92
2023/10/28 16:34:57;;;;;;;;;;;;;;;;;;4972623;28;20353;-93
2023/10/28 16:37:23;;;;;;;;;;;;;;;;;;4967434;28;19937;-92
2023/10/28 16:39:49;;;;;;;;;;;;;;;;;;4969160;28;20387;-92
2023/10/28 16:42:15;;;;;;;;;;;;;;;;;;4967003;28;20402;-92